Pagrindinis puslapis
METAR-TAF:

METAR-TAF

Oro uostai :

Umeo, Švedija

platuma: 63-48N, ilguma: 020-17E, Aukštis: 7 m

Dabartinis oras

Ataskaita buvo paskelbta 32 minutes, ne 05:50 UTC
Vėjas 5 kt iš Pietų/Pietvakarių, svyruoja nuo Pietryčių ir Vakarų/Pietvakarių
Temperatūra 17°C
Drėgmė 59%
Slėgis 1022 hPa
Matomumas 10 km arba daugiau
nėra debesų žemiau 1500 m ir nėra kamuolinių lietaus debesų

METAR: ESNU 240550Z 21005KT 140V240 CAVOK 17/09 Q1022

Laikas: 08:22 (06:22 UTC)

Prognozė

Ataskaita buvo paskelbta 52 minutes, ne 05:30 UTC
Prognozė galioja nuo 24 metu 06 UTC su 24 metu 15 UTC
Vėjas 4 kt iš Pietų
Matomumas 10 km arba daugiau
nėra debesų žemiau 1500 m ir nėra kamuolinių lietaus debesų

TAF: ESNU 240530Z 2406/2415 18004KT CAVOK

Orai ataskaitas ir orų prognozės (METAR, TAF).

turimą stotys yra geltonos ir raudonos taškus žemėlapyje.

Perkelti pele per norėdami pamatyti stoties vardą.

Tada spustelėkite, norėdami matyti oro stebėjimo ir prognozės.

Norėdami pakeisti žemėlapį: spustelėkite ant žalios mygtukų su juodo kryžiaus žemyn,; žalią mygtuką su brūkšneliu, jei norite nutolinti; arba žalių rodyklių gretimoms žemėlapius.


METAR-TAF: